.
WxDataArchive / Data Records for 2005-12-26
2005-12-25 December 2005 2005-12-27

Data Records for Monday, 26 December 2005

Time	Temp	Chill	HIndex	Humid	Dewpt	 Wind 	HiWind	WindDir	Rain 	Barom 
-----	----	-----	------	-----	-----	------	------	-------	-----	----- 
00:00	35.2	35.2	35.2	89	32.3	2	6	270	0.01	29.617 
00:05	35.2	35.2	35.2	88	32.0	2	5	292	0.00	29.617 
00:10	35.3	35.3	35.3	88	32.1	2	6	315	0.00	29.617 
00:15	35.3	35.3	35.3	88	32.1	2	5	315	0.00	29.622 
00:20	35.3	35.3	35.3	88	32.1	1	5	292	0.00	29.622 
00:25	35.2	35.2	35.2	88	32.0	1	4	338	0.00	29.622 
00:30	35.3	35.3	35.3	88	32.1	2	5	292	0.00	29.623 
00:35	35.3	35.3	35.3	88	32.1	2	6	315	0.00	29.623 
00:40	35.3	35.3	35.3	88	32.1	2	5	315	0.00	29.623 
00:45	35.3	35.3	35.3	88	32.1	2	4	338	0.00	29.624 
00:50	35.3	35.3	35.3	88	32.1	2	5	270	0.00	29.624 
00:55	35.3	35.3	35.3	88	32.1	2	4	315	0.01	29.624 
01:00	35.3	35.3	35.3	88	32.1	1	4	292	0.00	29.628 
01:05	35.3	35.3	35.3	88	32.1	1	4	338	0.00	29.628 
01:10	35.3	35.3	35.3	89	32.4	2	7	292	0.00	29.628 
01:15	35.3	35.3	35.3	89	32.4	1	6	315	0.00	29.630 
01:20	35.3	35.3	35.3	89	32.4	2	5	292	0.00	29.630 
01:25	35.3	35.3	35.3	89	32.4	2	4	292	0.00	29.630 
01:30	35.2	35.2	35.2	90	32.6	1	4	315	0.00	29.634 
01:35	35.2	35.2	35.2	90	32.6	2	5	270	0.00	29.634 
01:40	35.3	35.3	35.3	90	32.7	2	5	338	0.00	29.634 
01:45	35.3	35.3	35.3	90	32.7	2	6	270	0.00	29.637 
01:50	35.3	35.3	35.3	89	32.4	2	6	338	0.00	29.637 
01:55	35.3	35.3	35.3	89	32.4	2	5	315	0.00	29.637 
02:00	35.5	35.5	35.5	89	32.6	2	4	315	0.00	29.644 
02:05	35.5	35.5	35.5	89	32.6	2	8	292	0.00	29.644 
02:10	35.5	35.5	35.5	89	32.6	2	6	338	0.00	29.644 
02:15	35.5	35.5	35.5	89	32.6	2	5	292	0.00	29.647 
02:20	35.5	35.5	35.5	89	32.6	2	6	338	0.01	29.647 
02:25	35.5	35.5	35.5	89	32.6	1	4	338	0.00	29.647 
02:30	35.5	35.5	35.5	89	32.6	1	5	270	0.00	29.655 
02:35	35.5	35.5	35.5	89	32.6	2	6	315	0.00	29.655 
02:40	35.5	35.5	35.5	89	32.6	2	5	0	0.00	29.655 
02:45	35.5	35.5	35.5	89	32.6	1	4	315	0.00	29.660 
02:50	35.5	35.5	35.5	89	32.6	2	5	292	0.00	29.660 
02:55	35.5	35.5	35.5	89	32.6	2	6	292	0.00	29.660 
03:00	35.5	35.5	35.5	89	32.6	2	5	338	0.00	29.672 
03:05	35.5	35.5	35.5	89	32.6	1	3	338	0.00	29.672 
03:10	35.5	35.5	35.5	89	32.6	2	7	270	0.00	29.672 
03:15	35.5	35.5	35.5	89	32.6	1	3	338	0.00	29.680 
03:20	35.5	35.5	35.5	89	32.6	1	4	270	0.00	29.680 
03:25	35.5	35.5	35.5	89	32.6	2	3	315	0.00	29.680 
03:30	35.5	35.5	35.5	88	32.3	2	5	338	0.00	29.691 
03:35	35.5	35.5	35.5	88	32.3	2	6	315	0.00	29.691 
03:40	35.5	35.5	35.5	88	32.3	2	4	315	0.00	29.691 
03:45	35.6	35.6	35.6	88	32.4	2	4	315	0.00	29.693 
03:50	35.6	35.6	35.6	88	32.4	2	5	292	0.00	29.693 
03:55	35.6	35.6	35.6	87	32.1	2	5	338	0.00	29.693 
04:00	35.6	35.6	35.6	87	32.1	2	4	338	0.00	29.695 
04:05	35.6	35.6	35.6	87	32.1	2	7	292	0.00	29.695 
04:10	35.5	35.5	35.5	87	32.0	2	4	292	0.00	29.695 
04:15	35.5	35.5	35.5	87	32.0	1	4	315	0.00	29.701 
04:20	35.5	35.5	35.5	87	32.0	1	3	315	0.00	29.701 
04:25	35.5	35.5	35.5	87	32.0	1	5	270	0.00	29.701 
04:30	35.5	35.5	35.5	86	31.7	2	4	292	0.00	29.706 
04:35	35.5	35.5	35.5	86	31.7	1	3	315	0.00	29.706 
04:40	35.5	35.5	35.5	86	31.7	1	3	315	0.00	29.706 
04:45	35.5	35.5	35.5	86	31.7	2	7	315	0.00	29.709 
04:50	35.5	35.5	35.5	86	31.7	2	4	338	0.00	29.709 
04:55	35.3	35.3	35.3	86	31.5	1	4	270	0.00	29.709 
05:00	35.3	35.3	35.3	86	31.5	2	4	270	0.00	29.717 
05:05	35.3	35.3	35.3	86	31.5	2	4	270	0.00	29.717 
05:10	35.3	35.3	35.3	86	31.5	1	4	315	0.00	29.717 
05:15	35.3	35.3	35.3	85	31.2	2	4	315	0.00	29.725 
05:20	35.3	35.3	35.3	85	31.2	2	5	292	0.00	29.725 
05:25	35.3	35.3	35.3	85	31.2	2	3	315	0.00	29.725 
05:30	35.3	35.3	35.3	85	31.2	2	5	292	0.00	29.728 
05:35	35.3	35.3	35.3	85	31.2	2	5	338	0.00	29.728 
05:40	35.3	35.3	35.3	85	31.2	2	6	292	0.00	29.728 
05:45	35.3	35.3	35.3	84	31.0	3	6	292	0.00	29.740 
05:50	35.3	35.3	35.3	84	31.0	2	6	270	0.00	29.740 
05:55	35.2	35.2	35.2	84	30.9	2	7	292	0.00	29.740 
06:00	35.2	35.2	35.2	84	30.9	2	6	338	0.00	29.750 
06:05	35.2	35.2	35.2	84	30.9	2	5	292	0.00	29.750 
06:10	35.2	35.2	35.2	84	30.9	2	7	270	0.00	29.750 
06:15	35.0	35.0	35.0	84	30.7	3	7	270	0.00	29.757 
06:20	35.2	35.2	35.2	84	30.9	2	7	270	0.00	29.757 
06:25	35.2	35.2	35.2	84	30.9	2	5	292	0.00	29.757 
06:30	35.2	35.2	35.2	83	30.6	2	4	315	0.00	29.760 
06:35	35.0	35.0	35.0	84	30.7	1	4	315	0.00	29.760 
06:40	35.0	35.0	35.0	84	30.7	1	4	315	0.00	29.760 
06:45	35.0	35.0	35.0	84	30.7	1	4	315	0.00	29.770 
06:50	35.0	35.0	35.0	84	30.7	1	3	292	0.00	29.770 
06:55	35.0	35.0	35.0	84	30.7	1	4	270	0.00	29.770 
07:00	35.0	35.0	35.0	84	30.7	2	4	338	0.00	29.774 
07:05	35.0	35.0	35.0	84	30.7	2	6	315	0.00	29.774 
07:10	35.0	35.0	35.0	85	31.0	2	4	270	0.00	29.774 
07:15	34.9	34.9	34.9	85	30.9	2	4	292	0.00	29.773 
07:20	34.9	34.9	34.9	85	30.9	2	5	270	0.00	29.773 
07:25	34.9	34.9	34.9	84	30.6	2	6	315	0.00	29.773 
07:30	34.9	34.9	34.9	84	30.6	2	5	292	0.00	29.779 
07:35	34.9	34.9	34.9	84	30.6	2	4	292	0.00	29.779 
07:40	34.9	34.9	34.9	84	30.6	2	5	0	0.00	29.779 
07:45	34.9	34.9	34.9	84	30.6	1	4	338	0.00	29.787 
07:50	34.9	34.9	34.9	84	30.6	2	4	315	0.00	29.787 
07:55	34.9	34.9	34.9	84	30.6	1	3	270	0.00	29.787 
08:00	34.9	34.9	34.9	84	30.6	1	2	270	0.00	29.790 
08:05	34.9	34.9	34.9	83	30.3	2	4	315	0.00	29.790 
08:10	34.9	34.9	34.9	83	30.3	1	5	270	0.00	29.790 
08:15	34.7	34.7	34.7	83	30.1	1	4	315	0.00	29.797 
08:20	34.7	34.7	34.7	83	30.1	1	3	315	0.00	29.797 
08:25	34.7	34.7	34.7	83	30.1	1	3	270	0.00	29.797 
08:30	34.7	34.7	34.7	83	30.1	2	6	315	0.00	29.804 
08:35	34.9	34.9	34.9	83	30.3	2	5	338	0.00	29.804 
08:40	34.9	34.9	34.9	83	30.3	2	6	270	0.00	29.804 
08:45	34.9	34.9	34.9	83	30.3	2	5	248	0.00	29.808 
08:50	34.9	34.9	34.9	83	30.3	2	6	270	0.00	29.808 
08:55	34.7	34.7	34.7	83	30.1	2	5	270	0.00	29.808 
09:00	34.7	34.7	34.7	83	30.1	2	5	270	0.00	29.818 
09:05	34.7	34.7	34.7	83	30.1	2	7	292	0.00	29.818 
09:10	34.9	34.9	34.9	83	30.3	2	5	270	0.00	29.818 
09:15	34.9	34.9	34.9	83	30.3	2	5	270	0.00	29.823 
09:20	34.9	34.9	34.9	83	30.3	1	3	315	0.00	29.823 
09:25	34.9	34.9	34.9	82	30.0	2	4	270	0.00	29.823 
09:30	34.9	34.9	34.9	82	30.0	2	7	270	0.00	29.833 
09:35	34.9	34.9	34.9	81	29.7	2	6	292	0.00	29.833 
09:40	34.9	34.9	34.9	82	30.0	1	4	315	0.00	29.833 
09:45	34.7	34.7	34.7	81	29.5	2	5	338	0.00	29.839 
09:50	34.7	34.7	34.7	81	29.5	2	6	270	0.00	29.839 
09:55	34.7	34.7	34.7	81	29.5	2	5	315	0.00	29.839 
10:00	34.7	34.7	34.7	81	29.5	1	4	0	0.00	29.850 
10:05	34.7	34.7	34.7	81	29.5	2	6	315	0.00	29.850 
10:10	34.6	34.6	34.6	80	29.1	2	6	292	0.00	29.850 
10:15	34.6	34.6	34.6	80	29.1	2	7	315	0.00	29.856 
10:20	34.6	34.6	34.6	80	29.1	1	4	248	0.00	29.856 
10:25	34.6	34.6	34.6	80	29.1	1	4	270	0.00	29.856 
10:30	34.7	34.7	34.7	80	29.2	1	4	270	0.00	29.862 
10:35	34.7	34.7	34.7	78	28.6	3	10	338	0.00	29.862 
10:40	34.9	34.9	34.9	77	28.4	3	10	338	0.00	29.862 
10:45	35.0	35.0	35.0	77	28.5	1	4	315	0.00	29.866 
10:50	35.2	35.2	35.2	78	29.0	2	4	292	0.00	29.866 
10:55	35.3	35.3	35.3	76	28.5	2	6	270	0.00	29.866 
11:00	35.5	35.5	35.5	77	29.0	2	7	338	0.00	29.870 
11:05	35.5	35.5	35.5	76	28.7	2	6	292	0.00	29.870 
11:10	35.6	35.6	35.6	75	28.5	2	7	315	0.00	29.870 
11:15	35.8	35.8	35.8	74	28.3	2	5	338	0.00	29.873 
11:20	35.8	35.8	35.8	74	28.3	2	5	292	0.00	29.873 
11:25	35.9	35.9	35.9	74	28.4	2	5	338	0.00	29.873 
11:30	36.2	36.2	36.2	75	29.1	2	6	338	0.00	29.867 
11:35	36.3	36.3	36.3	74	28.8	2	6	315	0.00	29.867 
11:40	36.3	36.3	36.3	75	29.1	2	5	270	0.00	29.867 
11:45	36.5	36.5	36.5	75	29.3	2	4	338	0.00	29.866 
11:50	36.5	36.5	36.5	76	29.7	3	7	270	0.00	29.866 
11:55	36.5	36.5	36.5	77	30.0	2	4	292	0.00	29.866 
12:00	36.5	36.5	36.5	77	30.0	2	5	270	0.00	29.871 
12:05	36.5	36.5	36.5	78	30.3	2	7	270	0.00	29.871 
12:10	36.5	36.5	36.5	78	30.3	2	4	270	0.00	29.871 
12:15	36.3	36.3	36.3	81	31.0	3	7	270	0.00	29.867 
12:20	35.9	35.9	35.9	84	31.5	2	5	248	0.00	29.867 
12:25	35.8	35.8	35.8	86	32.0	1	2	292	0.00	29.867 
12:30	36.0	36.0	36.0	87	32.5	2	4	248	0.00	29.867 
12:35	36.2	36.2	36.2	85	32.1	2	4	315	0.00	29.867 
12:40	36.5	36.5	36.5	84	32.1	2	5	270	0.00	29.867 
12:45	36.6	36.6	36.6	81	31.3	2	6	270	0.00	29.866 
12:50	36.5	36.5	36.5	80	30.9	2	6	315	0.00	29.866 
12:55	36.3	36.3	36.3	81	31.0	2	5	292	0.00	29.866 
13:00	36.0	36.0	36.0	81	30.7	3	8	270	0.00	29.871 
13:05	35.9	35.9	35.9	81	30.6	3	11	270	0.00	29.871 
13:10	35.9	35.9	35.9	81	30.6	2	6	292	0.00	29.871 
13:15	35.9	35.9	35.9	81	30.6	2	5	270	0.00	29.866 
13:20	35.9	35.9	35.9	80	30.3	2	5	270	0.00	29.866 
13:25	36.0	36.0	36.0	81	30.7	2	4	270	0.00	29.866 
13:30	36.2	36.2	36.2	80	30.6	2	4	270	0.00	29.865 
13:35	36.3	36.3	36.3	80	30.7	1	3	270	0.00	29.865 
13:40	36.5	36.5	36.5	78	30.3	1	4	248	0.00	29.865 
13:45	36.3	36.3	36.3	75	29.1	2	5	270	0.00	29.864 
13:50	36.2	36.2	36.2	75	29.1	3	6	270	0.00	29.864 
13:55	36.2	36.2	36.2	76	29.4	2	5	292	0.00	29.864 
14:00	36.0	36.0	36.0	76	29.2	3	6	270	0.00	29.863 
14:05	35.9	35.9	35.9	77	29.4	2	5	270	0.00	29.863 
14:10	35.9	35.9	35.9	78	29.7	2	5	270	0.00	29.863 
14:15	35.9	35.9	35.9	78	29.7	2	5	270	0.00	29.865 
14:20	35.8	35.8	35.8	79	29.9	2	5	270	0.00	29.865 
14:25	35.8	35.8	35.8	79	29.9	2	4	270	0.00	29.865 
14:30	35.8	35.8	35.8	78	29.6	2	7	270	0.00	29.873 
14:35	35.6	32.2	35.6	76	28.8	4	10	270	0.00	29.873 
14:40	35.6	35.6	35.6	76	28.8	3	6	270	0.00	29.873 
14:45	35.5	35.5	35.5	75	28.4	3	6	270	0.00	29.879 
14:50	35.5	35.5	35.5	76	28.7	2	6	248	0.00	29.879 
14:55	35.5	35.5	35.5	78	29.3	2	4	270	0.00	29.879 
15:00	35.3	35.3	35.3	79	29.4	3	6	270	0.00	29.880 
15:05	35.2	35.2	35.2	80	29.7	2	4	270	0.00	29.880 
15:10	34.9	34.9	34.9	81	29.7	3	6	270	0.00	29.880 
15:15	34.7	34.7	34.7	81	29.5	3	6	270	0.00	29.884 
15:20	34.7	34.7	34.7	81	29.5	2	4	292	0.00	29.884 
15:25	34.7	34.7	34.7	80	29.2	2	7	270	0.00	29.884 
15:30	34.7	34.7	34.7	79	28.9	3	7	270	0.00	29.887 
15:35	34.7	34.7	34.7	80	29.2	2	5	270	0.00	29.887 
15:40	34.7	34.7	34.7	80	29.2	2	6	270	0.00	29.887 
15:45	34.6	34.6	34.6	80	29.1	1	3	292	0.00	29.893 
15:50	34.6	34.6	34.6	79	28.8	3	5	270	0.00	29.893 
15:55	34.4	34.4	34.4	79	28.6	3	6	270	0.00	29.893 
16:00	34.4	34.4	34.4	79	28.6	3	6	270	0.00	29.896 
16:05	34.3	34.3	34.3	79	28.5	3	6	270	0.00	29.896 
16:10	34.3	34.3	34.3	79	28.5	3	6	270	0.00	29.896 
16:15	34.3	34.3	34.3	78	28.2	3	11	270	0.00	29.899 
16:20	34.1	34.1	34.1	78	28.0	3	7	270	0.00	29.899 
16:25	34.1	34.1	34.1	78	28.0	2	4	270	0.00	29.899 
16:30	34.1	34.1	34.1	78	28.0	2	4	270	0.00	29.898 
16:35	34.0	34.0	34.0	78	27.9	2	4	270	0.00	29.898 
16:40	34.0	34.0	34.0	78	27.9	2	5	270	0.00	29.898 
16:45	34.0	34.0	34.0	78	27.9	2	5	270	0.00	29.899 
16:50	33.8	33.8	33.8	78	27.7	2	7	248	0.00	29.899 
16:55	33.7	33.7	33.7	78	27.6	3	6	270	0.00	29.899 
17:00	33.7	33.7	33.7	78	27.6	1	4	270	0.00	29.904 
17:05	33.5	33.5	33.5	78	27.4	2	7	270	0.00	29.904 
17:10	33.5	33.5	33.5	78	27.4	2	6	248	0.00	29.904 
17:15	33.5	33.5	33.5	78	27.4	1	5	292	0.00	29.913 
17:20	33.5	33.5	33.5	79	27.7	2	5	270	0.00	29.913 
17:25	33.5	33.5	33.5	80	28.0	2	6	248	0.00	29.913 
17:30	33.5	33.5	33.5	79	27.7	2	6	270	0.00	29.913 
17:35	33.5	33.5	33.5	79	27.7	2	4	270	0.00	29.913 
17:40	33.5	33.5	33.5	79	27.7	2	6	270	0.00	29.913 
17:45	33.4	33.4	33.4	80	27.9	2	4	270	0.00	29.912 
17:50	33.4	33.4	33.4	80	27.9	1	3	248	0.00	29.912 
17:55	33.4	33.4	33.4	80	27.9	1	4	248	0.00	29.912 
18:00	33.5	33.5	33.5	79	27.7	2	4	270	0.00	29.914 
18:05	33.5	33.5	33.5	79	27.7	2	5	270	0.00	29.914 
18:10	33.5	33.5	33.5	79	27.7	1	5	315	0.00	29.914 
18:15	33.5	33.5	33.5	78	27.4	2	3	270	0.00	29.915 
18:20	33.5	33.5	33.5	79	27.7	1	3	292	0.00	29.915 
18:25	33.5	33.5	33.5	78	27.4	1	3	248	0.00	29.915 
18:30	33.5	33.5	33.5	77	27.1	1	4	248	0.00	29.915 
18:35	33.5	33.5	33.5	76	26.8	2	4	248	0.00	29.915 
18:40	33.5	33.5	33.5	77	27.1	1	4	270	0.00	29.915 
18:45	33.5	33.5	33.5	76	26.8	2	5	270	0.00	29.920 
18:50	33.7	33.7	33.7	77	27.3	2	4	292	0.00	29.920 
18:55	33.7	33.7	33.7	76	27.0	1	2	248	0.00	29.920 
19:00	33.7	33.7	33.7	77	27.3	1	3	248	0.00	29.927 
19:05	33.7	33.7	33.7	77	27.3	1	3	248	0.00	29.927 
19:10	33.7	33.7	33.7	77	27.3	1	3	315	0.00	29.927 
19:15	33.7	33.7	33.7	77	27.3	1	3	248	0.00	29.932 
19:20	33.7	33.7	33.7	77	27.3	1	3	270	0.00	29.932 
19:25	33.7	33.7	33.7	78	27.6	1	3	248	0.00	29.932 
19:30	33.7	33.7	33.7	77	27.3	1	3	248	0.00	29.937 
19:35	33.7	33.7	33.7	77	27.3	1	3	248	0.00	29.937 
19:40	33.7	33.7	33.7	77	27.3	1	2	248	0.00	29.937 
19:45	33.7	33.7	33.7	78	27.6	0	2	248	0.00	29.940 
19:50	33.7	33.7	33.7	78	27.6	0	2	248	0.00	29.940 
19:55	33.7	33.7	33.7	77	27.3	1	2	248	0.00	29.940 
20:00	33.8	33.8	33.8	77	27.4	1	3	270	0.00	29.946 
20:05	33.8	33.8	33.8	77	27.4	1	3	270	0.00	29.946 
20:10	34.0	34.0	34.0	77	27.6	1	2	292	0.00	29.946 
20:15	33.8	33.8	33.8	77	27.4	0	2	270	0.00	29.951 
20:20	33.8	33.8	33.8	77	27.4	1	2	270	0.00	29.951 
20:25	33.8	33.8	33.8	77	27.4	0	2	248	0.00	29.951 
20:30	34.0	34.0	34.0	77	27.6	1	4	270	0.00	29.950 
20:35	34.0	34.0	34.0	77	27.6	1	3	248	0.00	29.950 
20:40	34.0	34.0	34.0	77	27.6	1	3	248	0.00	29.950 
20:45	34.0	34.0	34.0	77	27.6	1	3	248	0.00	29.947 
20:50	34.0	34.0	34.0	77	27.6	1	3	248	0.00	29.947 
20:55	34.0	34.0	34.0	77	27.6	2	3	248	0.00	29.947 
21:00	34.0	34.0	34.0	78	27.9	1	3	248	0.00	29.952 
21:05	34.0	34.0	34.0	78	27.9	1	4	248	0.00	29.952 
21:10	34.0	34.0	34.0	78	27.9	2	3	248	0.00	29.952 
21:15	34.0	34.0	34.0	79	28.2	2	5	248	0.00	29.952 
21:20	34.0	34.0	34.0	79	28.2	1	4	248	0.00	29.952 
21:25	33.8	33.8	33.8	79	28.0	1	3	248	0.00	29.952 
21:30	33.8	33.8	33.8	79	28.0	1	4	248	0.00	29.955 
21:35	33.8	33.8	33.8	79	28.0	1	4	248	0.00	29.955 
21:40	33.8	33.8	33.8	79	28.0	2	4	248	0.00	29.955 
21:45	34.0	34.0	34.0	79	28.2	2	5	248	0.00	29.951 
21:50	34.0	34.0	34.0	79	28.2	1	4	248	0.00	29.951 
21:55	34.0	34.0	34.0	78	27.9	2	5	248	0.00	29.951 
22:00	34.0	34.0	34.0	78	27.9	1	3	248	0.00	29.946 
22:05	34.0	34.0	34.0	78	27.9	1	3	248	0.00	29.946 
22:10	34.0	34.0	34.0	78	27.9	2	4	248	0.00	29.946 
22:15	34.0	34.0	34.0	78	27.9	2	4	248	0.00	29.943 
22:20	34.0	34.0	34.0	78	27.9	1	3	248	0.00	29.943 
22:25	34.0	34.0	34.0	78	27.9	1	4	248	0.00	29.943 
22:30	33.8	33.8	33.8	78	27.7	1	3	248	0.00	29.936 
22:35	33.8	33.8	33.8	79	28.0	1	2	248	0.00	29.936 
22:40	33.8	33.8	33.8	79	28.0	1	3	248	0.00	29.936 
22:45	33.8	33.8	33.8	80	28.3	1	4	248	0.00	29.933 
22:50	33.8	33.8	33.8	80	28.3	2	5	248	0.00	29.933 
22:55	33.8	33.8	33.8	79	28.0	3	5	248	0.00	29.933 
23:00	33.8	33.8	33.8	79	28.0	3	6	248	0.00	29.949 
23:05	33.8	33.8	33.8	79	28.0	3	6	248	0.00	29.949 
23:10	33.8	33.8	33.8	79	28.0	3	9	248	0.00	29.949 
23:15	33.8	33.8	33.8	80	28.3	2	6	248	0.00	29.946 
23:20	33.7	33.7	33.7	80	28.2	2	5	248	0.00	29.946 
23:25	33.7	33.7	33.7	81	28.5	2	6	248	0.00	29.946 
23:30	33.7	33.7	33.7	80	28.2	2	3	248	0.00	29.946 
23:35	33.5	33.5	33.5	80	28.0	1	3	248	0.00	29.946 
23:40	33.5	33.5	33.5	80	28.0	1	5	248	0.00	29.946 
23:45	33.4	33.4	33.4	80	27.9	3	6	248	0.00	29.940 
23:50	33.4	33.4	33.4	80	27.9	2	6	248	0.00	29.940 
23:55	33.2	33.2	33.2	81	28.0	2	5	248	0.00	29.940 

CoCoRaHS
IN-AL-39
A2 Web Hosting
Creative Commons License
GoDaddy
Look for:

loaded 2017-12-12 01:59:32 • last modified 2010-11-18 10:43:29
Privacy PolicyDisclaimer
• wx.awcolley.com is powered by PmWiki v.2002016 •
• all content (unless otherwise noted) © 2017 A W Colley